createdAt,value
2018-05-08T00:00:15.821Z,9.40
2018-05-08T00:02:44.015Z,7.70
2018-05-08T00:05:11.467Z,7.07
2018-05-08T00:07:38.909Z,7.00
2018-05-08T00:10:07.098Z,7.27
2018-05-08T00:12:34.541Z,7.13
2018-05-08T00:15:02.740Z,6.10
2018-05-08T00:17:30.181Z,5.47
2018-05-08T00:19:57.612Z,8.97
2018-05-08T00:22:25.807Z,7.60
2018-05-08T00:24:53.292Z,6.30
2018-05-08T00:27:20.748Z,9.10
2018-05-08T00:29:48.173Z,6.33
2018-05-08T00:32:15.603Z,6.10
2018-05-08T00:34:43.795Z,7.57
2018-05-08T00:37:11.236Z,8.17
2018-05-08T00:39:39.427Z,7.83
2018-05-08T00:42:06.851Z,6.20
2018-05-08T00:44:35.064Z,7.73
2018-05-08T00:47:02.496Z,6.20
2018-05-08T00:49:29.941Z,5.80
2018-05-08T00:51:58.134Z,6.33
2018-05-08T00:54:37.339Z,6.37
2018-05-08T00:57:05.530Z,7.50
2018-05-08T00:59:32.958Z,7.90
2018-05-08T01:02:00.396Z,6.73
2018-05-08T01:04:27.833Z,8.47
2018-05-08T01:06:55.265Z,8.60
2018-05-08T01:09:22.702Z,7.03
2018-05-08T01:11:50.180Z,10.17
2018-05-08T01:14:17.616Z,7.93
2018-05-08T01:16:45.045Z,6.57
2018-05-08T01:19:13.241Z,6.50
2018-05-08T01:21:40.676Z,9.03
2018-05-08T01:24:08.881Z,7.27
2018-05-08T01:26:36.337Z,6.90
2018-05-08T01:29:03.778Z,7.93
2018-05-08T01:31:31.568Z,6.97
2018-05-08T01:33:58.996Z,7.20
2018-05-08T01:36:26.434Z,6.50
2018-05-08T01:38:54.648Z,6.33
2018-05-08T01:41:22.074Z,7.50
2018-05-08T01:43:49.519Z,6.40
2018-05-08T01:46:17.716Z,6.00
2018-05-08T01:48:45.140Z,7.07
2018-05-08T01:51:13.364Z,6.83
2018-05-08T01:53:40.803Z,6.77
2018-05-08T01:56:08.231Z,6.87
2018-05-08T01:58:35.667Z,7.93
2018-05-08T02:01:03.880Z,6.93
2018-05-08T02:03:31.332Z,7.37
2018-05-08T02:05:58.752Z,7.20
2018-05-08T02:08:26.968Z,6.70
2018-05-08T02:10:54.399Z,7.27
2018-05-08T02:13:21.823Z,7.57
2018-05-08T02:15:49.266Z,6.93
2018-05-08T02:18:16.696Z,7.07
2018-05-08T02:20:44.139Z,8.10
2018-05-08T02:23:11.570Z,7.30
2018-05-08T02:25:39.021Z,7.20
2018-05-08T02:28:07.215Z,7.73
2018-05-08T02:30:34.640Z,7.37
2018-05-08T02:33:02.854Z,8.13
2018-05-08T02:35:30.320Z,7.00
2018-05-08T02:37:57.739Z,7.20
2018-05-08T02:40:25.184Z,6.63
2018-05-08T02:42:52.609Z,6.90
2018-05-08T02:45:20.041Z,7.17
2018-05-08T02:47:47.494Z,7.07
2018-05-08T02:50:14.921Z,6.67
2018-05-08T02:52:42.354Z,7.23
2018-05-08T02:55:09.787Z,7.07
2018-05-08T02:57:37.995Z,6.87
2018-05-08T03:00:05.416Z,7.70
2018-05-08T03:02:33.616Z,7.00
2018-05-08T03:05:01.058Z,7.90
2018-05-08T03:07:29.243Z,7.47
2018-05-08T03:09:56.698Z,8.37
2018-05-08T03:12:24.128Z,9.37
2018-05-08T03:14:52.340Z,11.37
2018-05-08T03:17:19.892Z,8.87
2018-05-08T03:19:47.323Z,10.63
2018-05-08T03:22:14.755Z,7.73
2018-05-08T03:24:42.205Z,7.63
2018-05-08T03:27:09.654Z,7.80
2018-05-08T03:29:37.104Z,8.40
2018-05-08T03:32:04.529Z,8.73
2018-05-08T03:34:31.957Z,9.20
2018-05-08T03:36:59.392Z,8.70
2018-05-08T03:39:27.588Z,9.00
2018-05-08T03:41:55.032Z,8.30
2018-05-08T03:44:22.723Z,8.93
2018-05-08T03:46:50.155Z,8.13
2018-05-08T03:49:17.582Z,8.00
2018-05-08T03:51:45.788Z,9.23
2018-05-08T03:54:13.239Z,9.60
2018-05-08T03:56:40.676Z,8.57
2018-05-08T03:59:08.866Z,9.43
2018-05-08T04:01:48.635Z,10.40
2018-05-08T04:04:28.844Z,8.57
2018-05-08T04:07:08.951Z,9.57
2018-05-08T04:09:36.379Z,10.97
2018-05-08T04:12:03.821Z,9.10
2018-05-08T04:14:31.249Z,8.63
2018-05-08T04:16:59.757Z,8.83
2018-05-08T04:19:27.197Z,8.80
2018-05-08T04:21:55.487Z,8.57
2018-05-08T04:24:22.922Z,9.23
2018-05-08T04:26:51.116Z,9.20
2018-05-08T04:29:18.557Z,9.67
2018-05-08T04:31:45.999Z,10.57
2018-05-08T04:34:14.200Z,10.50
2018-05-08T04:36:41.695Z,11.53
2018-05-08T04:39:09.125Z,11.13
2018-05-08T04:41:36.563Z,11.63
2018-05-08T04:44:04.014Z,12.00
2018-05-08T04:46:31.448Z,12.80
2018-05-08T04:48:59.652Z,11.80
2018-05-08T04:51:27.364Z,11.17
2018-05-08T04:53:54.805Z,12.40
2018-05-08T04:56:22.235Z,11.83
2018-05-08T04:58:50.003Z,10.77
2018-05-08T05:01:17.440Z,10.97
2018-05-08T05:03:45.876Z,11.37
2018-05-08T05:06:13.365Z,9.60
2018-05-08T05:08:40.993Z,10.20
2018-05-08T05:11:08.639Z,8.93
2018-05-08T05:13:36.893Z,8.77
2018-05-08T05:16:04.316Z,12.33
2018-05-08T05:18:31.948Z,9.90
2018-05-08T05:21:00.140Z,9.20
2018-05-08T05:23:27.596Z,9.30
2018-05-08T05:25:55.032Z,9.63
2018-05-08T05:28:22.493Z,10.47
2018-05-08T05:30:50.668Z,8.60
2018-05-08T05:33:18.106Z,11.50
2018-05-08T05:35:46.341Z,11.17
2018-05-08T05:38:13.793Z,10.63
2018-05-08T05:40:41.220Z,11.90
2018-05-08T05:43:08.664Z,11.23
2018-05-08T05:45:36.122Z,7.90
2018-05-08T05:48:03.554Z,8.37
2018-05-08T05:50:31.747Z,11.90
2018-05-08T05:52:59.193Z,9.00
2018-05-08T05:55:26.627Z,8.80
2018-05-08T05:57:54.840Z,10.20
2018-05-08T06:00:22.267Z,9.80
2018-05-08T06:02:50.477Z,8.27
2018-05-08T06:05:17.913Z,11.60
2018-05-08T06:07:45.352Z,12.77
2018-05-08T06:10:13.152Z,9.23
2018-05-08T06:12:40.576Z,9.20
2018-05-08T06:15:08.012Z,9.23
2018-05-08T06:17:36.228Z,11.57
2018-05-08T06:20:03.677Z,12.00
2018-05-08T06:22:31.161Z,9.53
2018-05-08T06:24:58.593Z,11.23
2018-05-08T06:27:26.034Z,10.90
2018-05-08T06:29:53.469Z,10.73
2018-05-08T06:32:20.915Z,8.57
2018-05-08T06:34:49.223Z,8.03
2018-05-08T06:37:16.638Z,8.80
2018-05-08T06:39:44.852Z,8.57
2018-05-08T06:42:12.322Z,9.00
2018-05-08T06:44:39.777Z,8.77
2018-05-08T06:47:07.232Z,8.67
2018-05-08T06:49:35.178Z,7.93
2018-05-08T06:52:02.603Z,7.53
2018-05-08T06:54:30.798Z,9.10
2018-05-08T06:56:58.245Z,9.03
2018-05-08T06:59:25.679Z,7.63
2018-05-08T07:01:53.893Z,11.13
2018-05-08T07:04:21.342Z,8.13
2018-05-08T07:06:48.773Z,6.90
2018-05-08T07:09:16.288Z,9.37
2018-05-08T07:11:44.411Z,7.93
2018-05-08T07:14:11.852Z,8.13
2018-05-08T07:16:39.288Z,5.63
2018-05-08T07:19:07.827Z,7.20
2018-05-08T07:21:35.266Z,6.43
2018-05-08T07:24:02.766Z,5.73
2018-05-08T07:26:30.164Z,6.97
2018-05-08T07:28:57.616Z,5.90
2018-05-08T07:31:25.119Z,5.57
2018-05-08T07:33:52.557Z,7.50
2018-05-08T07:36:20.003Z,6.10
2018-05-08T07:38:47.457Z,6.40
2018-05-08T07:41:14.928Z,5.07
2018-05-08T07:43:42.358Z,6.13
2018-05-08T07:46:10.138Z,5.67
2018-05-08T07:48:37.571Z,6.70
2018-05-08T07:51:04.992Z,4.87
2018-05-08T07:53:33.208Z,4.83
2018-05-08T07:56:00.644Z,3.70
2018-05-08T07:58:28.087Z,5.00
2018-05-08T08:00:55.531Z,6.53
2018-05-08T08:03:23.866Z,6.40
2018-05-08T08:05:52.012Z,4.97
2018-05-08T08:08:19.462Z,4.27
2018-05-08T08:10:47.257Z,5.10
2018-05-08T08:13:14.728Z,3.37
2018-05-08T08:15:42.155Z,3.73
2018-05-08T08:18:09.599Z,4.13
2018-05-08T08:20:37.125Z,4.23
2018-05-08T08:23:05.426Z,6.27
2018-05-08T08:25:32.978Z,3.85
2018-05-08T08:28:00.399Z,7.32
2018-05-08T08:30:28.608Z,4.20
2018-05-08T08:32:56.052Z,3.17
2018-05-08T08:35:23.496Z,3.77
2018-05-08T08:37:50.924Z,3.03
2018-05-08T08:40:18.379Z,3.30
2018-05-08T08:42:45.871Z,3.92
2018-05-08T08:45:13.264Z,3.22
2018-05-08T08:47:40.721Z,4.65
2018-05-08T08:50:08.133Z,5.10
2018-05-08T08:52:35.584Z,2.65
2018-05-08T08:55:03.020Z,4.97
2018-05-08T08:57:31.334Z,3.47
2018-05-08T08:59:58.769Z,5.45
2018-05-08T09:02:26.199Z,4.30
2018-05-08T09:04:54.416Z,3.42
2018-05-08T09:07:21.851Z,5.25
2018-05-08T09:09:49.292Z,4.87
2018-05-08T09:12:17.498Z,4.60
2018-05-08T09:14:44.955Z,3.75
2018-05-08T09:17:12.391Z,2.50
2018-05-08T09:19:39.911Z,5.30
2018-05-08T09:22:07.284Z,4.70
2018-05-08T09:24:35.475Z,2.80
2018-05-08T09:27:02.903Z,2.90
2018-05-08T09:29:31.115Z,4.25
2018-05-08T09:31:58.557Z,2.03
2018-05-08T09:34:25.999Z,3.78
2018-05-08T09:36:53.449Z,3.75
2018-05-08T09:39:20.896Z,3.50
2018-05-08T09:41:49.095Z,3.62
2018-05-08T09:44:16.540Z,4.07
2018-05-08T09:46:44.012Z,2.13
2018-05-08T09:49:11.474Z,2.90
2018-05-08T09:51:38.906Z,2.83
2018-05-08T09:54:06.406Z,3.33
2018-05-08T09:56:33.807Z,3.03
2018-05-08T09:59:01.496Z,4.87
2018-05-08T10:01:28.929Z,2.53
2018-05-08T10:03:56.450Z,3.03
2018-05-08T10:06:24.572Z,2.05
2018-05-08T10:08:52.024Z,2.75
2018-05-08T10:11:19.456Z,2.15
2018-05-08T10:13:46.901Z,3.15
2018-05-08T10:16:15.110Z,3.05
2018-05-08T10:18:42.543Z,2.47
2018-05-08T10:21:09.988Z,2.10
2018-05-08T10:23:38.187Z,2.65
2018-05-08T10:26:05.633Z,3.20
2018-05-08T10:28:33.078Z,2.70
2018-05-08T10:31:00.515Z,2.00
2018-05-08T10:33:28.728Z,2.37
2018-05-08T10:35:56.159Z,3.25
2018-05-08T10:38:23.607Z,2.03
2018-05-08T10:40:51.059Z,2.92
2018-05-08T10:43:19.281Z,2.30
2018-05-08T10:45:46.733Z,5.50
2018-05-08T10:48:14.170Z,2.45
2018-05-08T10:50:41.627Z,2.50
2018-05-08T10:53:09.069Z,3.15
2018-05-08T10:55:36.572Z,5.30
2018-05-08T10:58:04.764Z,2.53
2018-05-08T11:00:32.965Z,3.67
2018-05-08T11:03:00.399Z,4.35
2018-05-08T11:05:28.619Z,3.33
2018-05-08T11:07:56.209Z,3.92
2018-05-08T11:10:23.852Z,3.20
2018-05-08T11:12:51.683Z,3.70
2018-05-08T11:15:19.125Z,3.60
2018-05-08T11:17:46.580Z,4.47
2018-05-08T11:20:14.021Z,3.35
2018-05-08T11:22:42.223Z,3.67
2018-05-08T11:25:09.664Z,2.97
2018-05-08T11:27:37.116Z,3.90
2018-05-08T11:30:04.549Z,2.70
2018-05-08T11:32:32.769Z,1.95
2018-05-08T11:35:00.205Z,5.18
2018-05-08T11:37:27.655Z,4.70
2018-05-08T11:39:55.087Z,2.33
2018-05-08T11:42:23.307Z,3.00
2018-05-08T11:44:50.751Z,4.85
2018-05-08T11:47:18.196Z,2.92
2018-05-08T11:49:45.664Z,3.58
2018-05-08T11:52:13.094Z,5.43
2018-05-08T11:54:40.555Z,3.47
2018-05-08T11:57:07.994Z,3.65
2018-05-08T11:59:36.221Z,2.40
2018-05-08T12:02:03.661Z,2.30
2018-05-08T12:04:31.105Z,2.17
2018-05-08T12:06:58.556Z,3.30
2018-05-08T12:09:26.002Z,2.17
2018-05-08T12:11:53.465Z,3.85
2018-05-08T12:14:20.908Z,4.78
2018-05-08T12:16:48.345Z,4.10
2018-05-08T12:19:16.555Z,2.60
2018-05-08T12:21:44.040Z,2.12
2018-05-08T12:24:11.456Z,3.10
2018-05-08T12:26:38.895Z,3.80
2018-05-08T12:29:06.362Z,2.85
2018-05-08T12:31:34.121Z,5.28
2018-05-08T12:34:01.655Z,3.17
2018-05-08T12:36:29.869Z,3.97
2018-05-08T12:38:57.301Z,4.28
2018-05-08T12:41:24.764Z,2.28
2018-05-08T12:43:52.203Z,5.47
2018-05-08T12:46:19.649Z,2.72
2018-05-08T12:48:47.855Z,2.30
2018-05-08T12:51:15.297Z,3.75
2018-05-08T12:53:42.776Z,2.75
2018-05-08T12:56:10.239Z,1.92
2018-05-08T12:58:37.668Z,2.87
2018-05-08T13:01:05.107Z,2.78
2018-05-08T13:03:32.553Z,2.92
2018-05-08T13:06:00.755Z,3.53
2018-05-08T13:08:28.208Z,4.43
2018-05-08T13:10:55.683Z,2.60
2018-05-08T13:13:23.853Z,2.55
2018-05-08T13:15:51.281Z,3.08
2018-05-08T13:18:18.738Z,3.62
2018-05-08T13:20:46.160Z,3.25
2018-05-08T13:23:14.385Z,2.33
2018-05-08T13:25:41.817Z,3.03
2018-05-08T13:28:09.250Z,3.78
2018-05-08T13:30:37.456Z,4.05
2018-05-08T13:33:04.879Z,2.25
2018-05-08T13:36:51.195Z,4.45
2018-05-08T13:39:18.633Z,4.68
2018-05-08T13:41:46.913Z,3.42
2018-05-08T13:44:14.282Z,2.80
2018-05-08T13:46:41.744Z,5.65
2018-05-08T13:49:09.166Z,2.70
2018-05-08T13:51:37.392Z,4.47
2018-05-08T13:54:04.829Z,3.33
2018-05-08T13:56:32.301Z,3.90
2018-05-08T13:58:59.743Z,3.78
2018-05-08T14:01:27.203Z,4.10
2018-05-08T14:03:54.653Z,3.90
2018-05-08T14:06:22.094Z,5.53
2018-05-08T14:08:49.586Z,6.45
2018-05-08T14:11:17.020Z,3.15
2018-05-08T14:13:44.527Z,3.45
2018-05-08T14:16:12.749Z,3.65
2018-05-08T14:18:40.202Z,3.22
2018-05-08T14:21:08.013Z,2.28
2018-05-08T14:23:35.484Z,3.45
2018-05-08T14:26:03.993Z,3.15
2018-05-08T14:28:31.532Z,4.43
2018-05-08T14:30:58.960Z,2.35
2018-05-08T14:33:27.178Z,2.72
2018-05-08T14:35:54.621Z,3.00
2018-05-08T14:38:22.056Z,3.20
2018-05-08T14:40:50.257Z,4.25
2018-05-08T14:43:17.689Z,4.43
2018-05-08T14:45:45.386Z,5.00
2018-05-08T14:48:12.930Z,3.35
2018-05-08T14:50:40.354Z,4.85
2018-05-08T14:53:08.565Z,3.50
2018-05-08T14:55:35.996Z,2.53
2018-05-08T15:00:02.582Z,6.07
2018-05-08T15:02:30.013Z,5.10
2018-05-08T15:04:57.468Z,6.35
2018-05-08T15:07:24.927Z,4.30
2018-05-08T15:09:52.365Z,3.95
2018-05-08T15:14:37.525Z,4.40
2018-05-08T15:17:05.737Z,7.50
2018-05-08T15:19:33.161Z,2.92
2018-05-08T15:22:00.610Z,3.47
2018-05-08T15:24:28.046Z,3.75
2018-05-08T15:26:56.267Z,3.87
2018-05-08T15:29:24.052Z,4.40
2018-05-08T15:31:51.494Z,3.75
2018-05-08T15:34:18.925Z,2.25
2018-05-08T15:36:46.371Z,3.30
2018-05-08T15:39:13.848Z,4.43
2018-05-08T15:41:41.406Z,5.60
2018-05-08T15:44:08.860Z,3.67
2018-05-08T15:46:37.033Z,1.92
2018-05-08T15:49:04.471Z,2.10
2018-05-08T15:51:31.940Z,3.22
2018-05-08T15:53:59.385Z,4.62
2018-05-08T15:56:26.827Z,3.12
2018-05-08T15:58:54.260Z,4.87
2018-05-08T16:01:21.709Z,5.30
2018-05-08T16:03:49.148Z,4.40
2018-05-08T16:06:16.588Z,4.32
2018-05-08T16:08:44.117Z,6.60
2018-05-08T16:11:12.241Z,4.43
2018-05-08T16:13:39.690Z,4.35
2018-05-08T16:16:07.110Z,2.95
2018-05-08T16:18:35.313Z,3.75
2018-05-08T16:21:02.836Z,3.30
2018-05-08T16:23:30.193Z,3.22
2018-05-08T16:25:57.627Z,4.60
2018-05-08T16:28:25.433Z,3.47
2018-05-08T16:30:52.867Z,3.30
2018-05-08T16:33:20.323Z,6.18
2018-05-08T16:35:47.773Z,3.78
2018-05-08T16:38:15.197Z,5.37
2018-05-08T16:40:42.635Z,5.00
2018-05-08T16:43:10.096Z,2.87
2018-05-08T16:45:37.661Z,2.33
2018-05-08T16:48:05.088Z,3.55
2018-05-08T16:50:32.539Z,2.58
2018-05-08T16:52:59.976Z,3.58
2018-05-08T16:55:27.412Z,3.83
2018-05-08T16:57:54.865Z,2.20
2018-05-08T17:00:22.302Z,2.87
2018-05-08T17:02:49.740Z,2.87
2018-05-08T17:05:17.956Z,3.10
2018-05-08T17:07:45.603Z,2.60
2018-05-08T17:10:13.047Z,3.80
2018-05-08T17:12:40.492Z,3.40
2018-05-08T17:15:10.327Z,4.63
2018-05-08T17:17:38.173Z,3.77
2018-05-08T17:20:05.648Z,4.33
2018-05-08T17:22:33.100Z,2.23
2018-05-08T17:25:00.545Z,2.90
2018-05-08T17:27:28.039Z,2.90
2018-05-08T17:29:55.479Z,2.60
2018-05-08T17:32:22.919Z,3.83
2018-05-08T17:34:50.380Z,5.40
2018-05-08T17:37:17.849Z,3.50
2018-05-08T17:39:45.288Z,6.20
2018-05-08T17:42:12.741Z,2.67
2018-05-08T17:44:40.597Z,3.50
2018-05-08T17:47:08.044Z,4.00
2018-05-08T17:49:35.472Z,3.47
2018-05-08T17:52:40.731Z,8.03
2018-05-08T17:55:08.163Z,3.17
2018-05-08T17:57:36.468Z,3.50
2018-05-08T18:00:03.830Z,4.00
2018-05-08T18:02:31.280Z,2.63
2018-05-08T18:04:58.715Z,2.57
2018-05-08T18:07:26.168Z,5.07
2018-05-08T18:09:53.605Z,4.20
2018-05-08T18:12:21.817Z,5.13
2018-05-08T18:14:49.271Z,3.73
2018-05-08T18:17:16.729Z,3.90
2018-05-08T18:19:44.181Z,2.90
2018-05-08T18:22:11.617Z,2.60
2018-05-08T18:24:39.079Z,2.93
2018-05-08T18:27:06.539Z,3.70
2018-05-08T18:29:33.990Z,5.07
2018-05-08T18:32:01.440Z,3.67
2018-05-08T18:34:28.960Z,3.37
2018-05-08T18:36:57.089Z,6.07
2018-05-08T18:39:24.526Z,6.37
2018-05-08T18:41:51.967Z,5.47
2018-05-08T18:44:20.171Z,3.87
2018-05-08T18:46:47.617Z,3.07
2018-05-08T18:49:15.059Z,3.57
2018-05-08T18:51:42.490Z,3.13
2018-05-08T18:54:10.691Z,3.13
2018-05-08T18:56:38.142Z,3.10
2018-05-08T18:59:05.589Z,5.63
2018-05-08T19:01:33.055Z,3.57
2018-05-08T19:04:00.548Z,2.67
2018-05-08T19:06:27.972Z,3.13
2018-05-08T19:08:55.424Z,2.60
2018-05-08T19:11:28.649Z,3.37
2018-05-08T19:13:56.095Z,5.80
2018-05-08T19:16:23.549Z,3.43
2018-05-08T19:21:57.166Z,6.73
2018-05-08T19:24:30.267Z,5.07
2018-05-08T19:26:57.695Z,3.27
2018-05-08T19:29:30.879Z,3.23
2018-05-08T19:31:58.339Z,3.83
2018-05-08T19:34:31.545Z,6.13
2018-05-08T19:37:04.736Z,5.13
2018-05-08T19:39:32.181Z,3.37
2018-05-08T19:41:59.613Z,3.77
2018-05-08T19:44:27.081Z,4.10
2018-05-08T19:46:54.612Z,3.70
2018-05-08T19:49:22.026Z,3.47
2018-05-08T19:51:49.457Z,3.87
2018-05-08T19:54:16.897Z,4.33
2018-05-08T19:56:44.336Z,4.60
2018-05-08T19:59:12.094Z,4.67
2018-05-08T20:01:39.515Z,3.30
2018-05-08T20:04:07.718Z,4.00
2018-05-08T20:06:35.163Z,4.03
2018-05-08T20:09:03.366Z,5.97
2018-05-08T20:11:30.809Z,6.03
2018-05-08T20:13:58.247Z,3.63
2018-05-08T20:16:25.691Z,3.77
2018-05-08T20:18:53.896Z,3.73
2018-05-08T20:21:21.433Z,4.47
2018-05-08T20:23:48.779Z,4.83
2018-05-08T20:26:16.992Z,5.00
2018-05-08T20:28:44.439Z,4.83
2018-05-08T20:31:11.877Z,4.60
2018-05-08T20:33:40.247Z,4.30
2018-05-08T20:36:08.515Z,7.43
2018-05-08T20:38:35.882Z,5.10
2018-05-08T20:41:03.408Z,5.37
2018-05-08T20:43:31.632Z,5.77
2018-05-08T20:45:59.063Z,5.50
2018-05-08T20:48:26.509Z,4.50
2018-05-08T20:50:53.943Z,4.20
2018-05-08T20:53:22.136Z,4.93
2018-05-08T20:55:49.579Z,7.00
2018-05-08T20:58:18.483Z,5.17
2018-05-08T21:00:45.904Z,5.10
2018-05-08T21:03:13.412Z,6.17
2018-05-08T21:05:40.848Z,6.20
2018-05-08T21:08:08.287Z,5.00
2018-05-08T21:10:36.494Z,8.60
2018-05-08T21:13:03.924Z,5.63
2018-05-08T21:15:31.378Z,6.00
2018-05-08T21:17:58.841Z,5.33
2018-05-08T21:20:26.232Z,4.57
2018-05-08T21:22:53.712Z,5.37
2018-05-08T21:25:21.148Z,5.00
2018-05-08T21:27:54.389Z,4.57
2018-05-08T21:30:27.526Z,6.23
2018-05-08T21:32:54.871Z,4.67
2018-05-08T21:35:22.302Z,3.90
2018-05-08T21:37:49.753Z,4.33
2018-05-08T21:40:17.172Z,4.23
2018-05-08T21:42:45.378Z,4.97
2018-05-08T21:45:12.819Z,3.90
2018-05-08T21:47:40.248Z,5.17
2018-05-08T21:50:08.467Z,3.97
2018-05-08T21:52:35.908Z,7.50
2018-05-08T21:55:03.353Z,5.17
2018-05-08T21:57:30.780Z,4.73
2018-05-08T22:02:30.110Z,4.30
2018-05-08T22:04:58.316Z,6.40
2018-05-08T22:07:25.747Z,6.70
2018-05-08T22:09:53.180Z,6.83
2018-05-08T22:12:21.380Z,6.33
2018-05-08T22:14:48.964Z,7.60
2018-05-08T22:17:17.162Z,6.70
2018-05-08T22:19:44.592Z,6.37
2018-05-08T22:22:12.032Z,7.43
2018-05-08T22:24:39.466Z,5.23
2018-05-08T22:29:39.517Z,9.60
2018-05-08T22:32:06.956Z,9.23
2018-05-08T22:34:34.392Z,4.20
2018-05-08T22:37:02.584Z,7.20
2018-05-08T22:39:30.029Z,6.10
2018-05-08T22:41:57.469Z,10.77
2018-05-08T22:44:25.670Z,6.20
2018-05-08T22:46:53.109Z,4.87
2018-05-08T22:49:20.544Z,6.13
2018-05-08T22:51:48.744Z,6.77
2018-05-08T22:54:16.184Z,6.33
2018-05-08T22:56:44.377Z,5.30
2018-05-08T22:59:11.839Z,8.07
2018-05-08T23:01:39.521Z,5.47
2018-05-08T23:04:06.964Z,5.10
2018-05-08T23:06:34.400Z,6.43
2018-05-08T23:09:01.848Z,5.17
2018-05-08T23:11:29.322Z,6.50
2018-05-08T23:13:56.809Z,5.00
2018-05-08T23:16:24.247Z,6.00
2018-05-08T23:18:51.679Z,6.60
2018-05-08T23:21:19.112Z,5.33
2018-05-08T23:23:47.304Z,4.63
2018-05-08T23:26:14.747Z,4.63
2018-05-08T23:28:42.183Z,7.90
2018-05-08T23:31:10.383Z,5.90
2018-05-08T23:33:37.820Z,5.23
2018-05-08T23:36:06.339Z,5.40
2018-05-08T23:38:33.768Z,5.90
2018-05-08T23:41:01.207Z,5.97
2018-05-08T23:43:29.417Z,6.20
2018-05-08T23:45:56.851Z,4.80
2018-05-08T23:48:24.283Z,6.17
2018-05-08T23:50:52.512Z,5.33
2018-05-08T23:53:19.960Z,6.60
2018-05-08T23:55:47.404Z,7.90
2018-05-08T23:58:14.833Z,5.97
